createdAt,value
2018-12-02T00:01:10.535Z,-2.40
2018-12-02T00:03:40.899Z,-2.50
2018-12-02T00:06:11.166Z,-2.50
2018-12-02T00:08:41.477Z,-2.50
2018-12-02T00:11:11.737Z,-2.40
2018-12-02T00:13:42.036Z,-2.40
2018-12-02T00:16:12.286Z,-2.40
2018-12-02T00:18:42.574Z,-2.40
2018-12-02T00:21:12.872Z,-2.40
2018-12-02T00:23:43.135Z,-2.40
2018-12-02T00:26:13.449Z,-2.40
2018-12-02T00:28:43.721Z,-2.40
2018-12-02T00:31:14.025Z,-2.40
2018-12-02T00:33:44.307Z,-2.40
2018-12-02T00:36:14.647Z,-2.40
2018-12-02T00:38:44.894Z,-2.40
2018-12-02T00:41:15.177Z,-2.50
2018-12-02T00:43:45.440Z,-2.50
2018-12-02T00:46:15.736Z,-2.50
2018-12-02T00:48:46.000Z,-2.50
2018-12-02T00:51:16.307Z,-2.60
2018-12-02T00:53:46.490Z,-2.50
2018-12-02T00:56:15.040Z,-2.60
2018-12-02T00:58:45.291Z,-2.50
2018-12-02T01:01:15.559Z,-2.50
2018-12-02T01:03:45.873Z,-2.50
2018-12-02T01:06:16.146Z,-2.50
2018-12-02T01:08:46.451Z,-2.40
2018-12-02T01:11:16.758Z,-2.40
2018-12-02T01:13:47.026Z,-2.40
2018-12-02T01:16:17.249Z,-2.40
2018-12-02T01:18:47.535Z,-2.40
2018-12-02T01:21:17.807Z,-2.40
2018-12-02T01:23:48.034Z,-2.40
2018-12-02T01:26:18.302Z,-2.40
2018-12-02T01:28:48.613Z,-2.40
2018-12-02T01:31:18.886Z,-2.40
2018-12-02T01:33:49.144Z,-2.40
2018-12-02T01:36:19.403Z,-2.30
2018-12-02T01:38:49.682Z,-2.30
2018-12-02T01:41:19.962Z,-2.30
2018-12-02T01:43:50.290Z,-2.30
2018-12-02T01:46:20.556Z,-2.30
2018-12-02T01:48:51.323Z,-2.20
2018-12-02T01:51:21.566Z,-2.20
2018-12-02T01:53:51.818Z,-2.20
2018-12-02T01:56:22.083Z,-2.20
2018-12-02T01:58:53.230Z,-2.20
2018-12-02T02:01:23.633Z,-2.20
2018-12-02T02:03:54.206Z,-2.20
2018-12-02T02:06:24.410Z,-2.20
2018-12-02T02:08:54.667Z,-2.20
2018-12-02T02:11:24.938Z,-2.10
2018-12-02T02:13:55.180Z,-2.20
2018-12-02T02:16:25.495Z,-2.10
2018-12-02T02:18:55.790Z,-2.10
2018-12-02T02:21:26.063Z,-2.10
2018-12-02T02:23:56.299Z,-2.10
2018-12-02T02:26:26.558Z,-2.10
2018-12-02T02:28:56.838Z,-2.10
2018-12-02T02:31:27.116Z,-2.10
2018-12-02T02:33:57.372Z,-2.10
2018-12-02T02:36:27.651Z,-2.10
2018-12-02T02:38:57.895Z,-2.10
2018-12-02T02:41:28.129Z,-2.10
2018-12-02T02:43:58.368Z,-2.10
2018-12-02T02:46:28.635Z,-2.10
2018-12-02T02:48:58.904Z,-2.10
2018-12-02T02:51:29.127Z,-2.10
2018-12-02T02:53:59.419Z,-2.10
2018-12-02T02:56:29.730Z,-2.10
2018-12-02T02:58:59.972Z,-2.10
2018-12-02T03:01:30.221Z,-2.10
2018-12-02T03:04:00.466Z,-2.10
2018-12-02T03:06:30.755Z,-2.10
2018-12-02T03:09:00.982Z,-2.10
2018-12-02T03:11:31.251Z,-2.20
2018-12-02T03:14:01.479Z,-2.20
2018-12-02T03:16:31.758Z,-2.20
2018-12-02T03:19:02.039Z,-2.20
2018-12-02T03:21:32.333Z,-2.10
2018-12-02T03:24:02.590Z,-2.20
2018-12-02T03:26:32.846Z,-2.20
2018-12-02T03:29:03.115Z,-2.20
2018-12-02T03:31:33.376Z,-2.20
2018-12-02T03:34:03.634Z,-2.20
2018-12-02T03:36:33.913Z,-2.20
2018-12-02T03:39:04.420Z,-2.10
2018-12-02T03:41:34.706Z,-2.10
2018-12-02T03:44:05.010Z,-2.10
2018-12-02T03:46:35.266Z,-2.10
2018-12-02T03:49:05.719Z,-2.10
2018-12-02T03:51:35.966Z,-2.10
2018-12-02T03:54:06.478Z,-2.10
2018-12-02T03:56:36.754Z,-2.10
2018-12-02T03:59:07.522Z,-2.10
2018-12-02T04:01:37.820Z,-2.10
2018-12-02T04:04:08.084Z,-2.10
2018-12-02T04:06:38.381Z,-2.10
2018-12-02T04:09:10.170Z,-2.10
2018-12-02T04:11:40.421Z,-2.10
2018-12-02T04:14:10.667Z,-2.10
2018-12-02T04:16:40.923Z,-2.10
2018-12-02T04:19:11.183Z,-2.10
2018-12-02T04:21:41.431Z,-2.10
2018-12-02T04:24:11.698Z,-2.10
2018-12-02T04:26:42.018Z,-2.10
2018-12-02T04:29:12.267Z,-2.10
2018-12-02T04:31:42.556Z,-2.10
2018-12-02T04:34:12.801Z,-2.10
2018-12-02T04:36:43.064Z,-2.10
2018-12-02T04:39:13.366Z,-2.10
2018-12-02T04:41:43.662Z,-2.10
2018-12-02T04:44:13.903Z,-2.10
2018-12-02T04:46:44.163Z,-2.10
2018-12-02T04:49:14.434Z,-2.00
2018-12-02T04:51:44.751Z,-2.00
2018-12-02T04:54:15.016Z,-2.00
2018-12-02T04:56:45.300Z,-2.00
2018-12-02T04:59:15.559Z,-2.00
2018-12-02T05:01:45.818Z,-2.00
2018-12-02T05:04:16.075Z,-2.00
2018-12-02T05:06:46.316Z,-2.00
2018-12-02T05:09:16.575Z,-2.00
2018-12-02T05:11:46.838Z,-2.00
2018-12-02T05:14:17.140Z,-2.00
2018-12-02T05:16:47.490Z,-2.00
2018-12-02T05:19:17.763Z,-2.00
2018-12-02T05:21:48.031Z,-2.00
2018-12-02T05:24:18.304Z,-2.00
2018-12-02T05:26:48.651Z,-2.00
2018-12-02T05:29:18.925Z,-2.00
2018-12-02T05:31:49.234Z,-2.10
2018-12-02T05:34:19.554Z,-2.00
2018-12-02T05:36:49.834Z,-2.00
2018-12-02T05:39:20.106Z,-2.00
2018-12-02T05:41:55.521Z,-2.00
2018-12-02T05:44:25.758Z,-2.00
2018-12-02T05:46:56.442Z,-2.00
2018-12-02T05:49:26.740Z,-2.00
2018-12-02T05:51:57.016Z,-2.00
2018-12-02T05:54:27.312Z,-2.00
2018-12-02T05:56:57.578Z,-2.00
2018-12-02T05:59:27.826Z,-2.00
2018-12-02T06:01:58.081Z,-2.00
2018-12-02T06:04:28.348Z,-2.00
2018-12-02T06:06:58.629Z,-2.10
2018-12-02T06:09:28.894Z,-2.10
2018-12-02T06:11:59.155Z,-2.10
2018-12-02T06:14:29.436Z,-2.10
2018-12-02T06:16:59.686Z,-2.20
2018-12-02T06:19:29.905Z,-2.20
2018-12-02T06:22:00.179Z,-2.30
2018-12-02T06:24:30.440Z,-2.30
2018-12-02T06:27:00.698Z,-2.30
2018-12-02T06:29:30.963Z,-2.30
2018-12-02T06:32:01.296Z,-2.30
2018-12-02T06:34:31.591Z,-3.30
2018-12-02T06:37:01.890Z,-2.30
2018-12-02T06:39:32.219Z,-2.30
2018-12-02T06:42:02.526Z,-2.20
2018-12-02T06:44:32.819Z,-2.20
2018-12-02T06:47:03.152Z,-2.20
2018-12-02T06:49:33.487Z,-2.20
2018-12-02T06:52:03.782Z,-2.20
2018-12-02T06:54:39.542Z,-2.20
2018-12-02T06:57:14.885Z,-2.20
2018-12-02T07:00:01.508Z,-2.20
2018-12-02T07:02:45.119Z,-2.20
2018-12-02T07:05:23.948Z,-2.20
2018-12-02T07:07:54.255Z,-2.20
2018-12-02T07:10:24.527Z,-2.30
2018-12-02T07:12:54.802Z,-2.30
2018-12-02T07:15:25.072Z,-2.30
2018-12-02T07:18:00.699Z,-2.30
2018-12-02T07:20:33.893Z,-2.30
2018-12-02T07:23:08.443Z,-2.30
2018-12-02T07:25:45.186Z,-2.30
2018-12-02T07:28:15.455Z,-2.30
2018-12-02T07:30:45.739Z,-2.30
2018-12-02T07:33:15.987Z,-2.30
2018-12-02T07:35:46.239Z,-2.30
2018-12-02T07:38:31.507Z,-2.30
2018-12-02T07:41:02.422Z,-2.20
2018-12-02T07:43:32.710Z,-2.20
2018-12-02T07:46:02.947Z,-2.10
2018-12-02T07:48:33.243Z,-2.10
2018-12-02T07:51:03.486Z,-2.10
2018-12-02T07:53:33.800Z,-2.10
2018-12-02T07:56:04.091Z,-2.10
2018-12-02T07:58:34.363Z,-2.00
2018-12-02T08:01:04.627Z,-2.00
2018-12-02T08:03:34.915Z,-1.90
2018-12-02T08:06:05.768Z,-1.90
2018-12-02T08:08:36.057Z,-1.90
2018-12-02T08:11:06.935Z,-1.90
2018-12-02T08:13:37.175Z,-1.90
2018-12-02T08:16:07.757Z,-1.90
2018-12-02T08:18:38.041Z,-1.90
2018-12-02T08:21:08.338Z,-1.80
2018-12-02T08:23:38.683Z,-1.80
2018-12-02T08:26:08.938Z,-1.80
2018-12-02T08:28:39.174Z,-1.80
2018-12-02T08:31:09.469Z,-1.80
2018-12-02T08:33:39.752Z,-1.80
2018-12-02T08:36:10.021Z,-1.70
2018-12-02T08:38:40.303Z,-1.80
2018-12-02T08:41:10.599Z,-1.70
2018-12-02T08:43:41.226Z,-1.70
2018-12-02T08:46:11.092Z,-1.70
2018-12-02T08:48:41.355Z,-1.70
2018-12-02T08:51:11.662Z,-1.70
2018-12-02T08:53:41.893Z,-1.70
2018-12-02T08:56:12.210Z,-1.70
2018-12-02T08:58:42.434Z,-1.70
2018-12-02T09:01:12.713Z,-1.60
2018-12-02T09:03:42.983Z,-1.60
2018-12-02T09:06:13.812Z,-1.60
2018-12-02T09:08:44.107Z,-1.60
2018-12-02T09:11:14.454Z,-1.60
2018-12-02T09:13:44.757Z,-1.60
2018-12-02T09:16:15.014Z,-1.70
2018-12-02T09:18:45.294Z,-1.70
2018-12-02T09:21:15.534Z,-1.70
2018-12-02T09:23:47.510Z,-1.70
2018-12-02T09:26:16.106Z,-1.70
2018-12-02T09:28:46.377Z,-1.70
2018-12-02T09:31:16.725Z,-1.70
2018-12-02T09:33:46.902Z,-1.70
2018-12-02T09:36:17.140Z,-1.70
2018-12-02T09:38:47.406Z,-1.60
2018-12-02T09:41:17.700Z,-1.60
2018-12-02T09:43:47.960Z,-1.60
2018-12-02T09:46:18.232Z,-1.60
2018-12-02T09:48:48.506Z,-1.60
2018-12-02T09:51:18.789Z,-1.60
2018-12-02T09:53:49.070Z,-1.60
2018-12-02T09:56:19.351Z,-1.60
2018-12-02T09:58:49.623Z,-1.50
2018-12-02T10:01:19.891Z,-1.50
2018-12-02T10:03:50.186Z,-1.50
2018-12-02T10:06:20.546Z,-1.50
2018-12-02T10:08:50.838Z,-1.50
2018-12-02T10:11:21.128Z,-1.50
2018-12-02T10:13:51.413Z,-1.50
2018-12-02T10:16:21.703Z,-1.40
2018-12-02T10:18:51.946Z,-1.40
2018-12-02T10:21:22.230Z,-1.50
2018-12-02T10:23:52.514Z,-1.50
2018-12-02T10:26:22.800Z,-1.50
2018-12-02T10:28:53.320Z,-1.50
2018-12-02T10:31:23.594Z,-1.40
2018-12-02T10:33:53.908Z,-1.50
2018-12-02T10:36:24.139Z,-1.40
2018-12-02T10:38:54.387Z,-1.40
2018-12-02T10:41:24.699Z,-1.40
2018-12-02T10:43:55.035Z,-1.40
2018-12-02T10:46:25.287Z,-1.40
2018-12-02T10:48:55.546Z,-1.30
2018-12-02T10:51:25.902Z,-1.30
2018-12-02T10:53:56.179Z,-1.30
2018-12-02T10:56:26.451Z,-1.30
2018-12-02T10:58:56.688Z,-1.30
2018-12-02T11:01:32.008Z,-1.30
2018-12-02T11:04:02.343Z,-1.30
2018-12-02T11:06:32.652Z,-1.30
2018-12-02T11:09:03.004Z,-1.30
2018-12-02T11:11:33.338Z,-1.30
2018-12-02T11:14:03.587Z,-1.30
2018-12-02T11:16:33.909Z,-1.30
2018-12-02T11:19:04.183Z,-1.30
2018-12-02T11:21:34.455Z,-1.30
2018-12-02T11:24:04.803Z,-1.20
2018-12-02T11:26:35.103Z,-1.30
2018-12-02T11:29:05.547Z,-1.30
2018-12-02T11:31:35.834Z,-1.30
2018-12-02T11:34:06.437Z,-1.30
2018-12-02T11:36:36.771Z,-1.30
2018-12-02T11:39:10.171Z,-1.30
2018-12-02T11:41:40.378Z,-1.20
2018-12-02T11:44:10.626Z,-1.30
2018-12-02T11:46:40.920Z,-1.30
2018-12-02T11:49:11.155Z,-1.30
2018-12-02T11:51:41.436Z,-1.30
2018-12-02T11:54:11.737Z,-1.30
2018-12-02T11:56:42.017Z,-1.30
2018-12-02T11:59:12.291Z,-1.40
2018-12-02T12:01:42.601Z,-1.40
2018-12-02T12:04:12.839Z,-1.40
2018-12-02T12:06:43.124Z,-1.40
2018-12-02T12:09:13.422Z,-1.40
2018-12-02T12:11:43.811Z,-1.40
2018-12-02T12:14:14.162Z,-1.40
2018-12-02T12:16:44.446Z,-1.40
2018-12-02T12:19:14.756Z,-1.40
2018-12-02T12:21:45.066Z,-1.40
2018-12-02T12:24:15.395Z,-1.30
2018-12-02T12:26:45.651Z,-1.30
2018-12-02T12:29:15.914Z,-1.30
2018-12-02T12:31:46.179Z,-1.30
2018-12-02T12:34:16.452Z,-1.40
2018-12-02T12:36:46.752Z,-1.40
2018-12-02T12:39:17.050Z,-1.30
2018-12-02T12:41:47.343Z,-1.30
2018-12-02T12:44:17.630Z,-1.30
2018-12-02T12:46:47.841Z,-1.30
2018-12-02T12:49:18.162Z,-1.30
2018-12-02T12:51:48.435Z,-1.20
2018-12-02T12:54:18.823Z,-1.20
2018-12-02T12:56:49.154Z,-1.20
2018-12-02T12:59:19.406Z,-1.20
2018-12-02T13:01:49.691Z,-1.20
2018-12-02T13:04:19.927Z,-1.10
2018-12-02T13:06:50.279Z,-1.10
2018-12-02T13:09:20.573Z,-1.10
2018-12-02T13:11:50.871Z,-1.20
2018-12-02T13:14:21.262Z,-1.20
2018-12-02T13:16:51.656Z,-1.10
2018-12-02T13:19:21.926Z,-1.10
2018-12-02T13:21:52.276Z,-1.10
2018-12-02T13:24:22.500Z,-1.10
2018-12-02T13:26:52.726Z,-1.10
2018-12-02T13:29:23.031Z,-1.10
2018-12-02T13:31:53.278Z,-1.20
2018-12-02T13:34:23.565Z,-1.20
2018-12-02T13:36:53.843Z,-1.20
2018-12-02T13:39:24.115Z,-1.20
2018-12-02T13:41:54.402Z,-1.20
2018-12-02T13:44:24.726Z,-1.10
2018-12-02T13:46:55.325Z,-1.10
2018-12-02T13:49:25.596Z,-1.10
2018-12-02T13:51:55.966Z,-1.10
2018-12-02T13:54:31.608Z,-1.10
2018-12-02T13:57:01.913Z,-1.10
2018-12-02T13:59:32.267Z,-1.10
2018-12-02T14:02:02.568Z,-1.20
2018-12-02T14:04:32.926Z,-1.20
2018-12-02T14:07:03.274Z,-1.20
2018-12-02T14:09:33.658Z,-1.30
2018-12-02T14:12:04.106Z,-1.30
2018-12-02T14:14:38.741Z,-1.30
2018-12-02T14:17:14.387Z,-1.30
2018-12-02T14:19:47.133Z,-1.30
2018-12-02T14:22:17.446Z,-1.30
2018-12-02T14:24:47.768Z,-1.30
2018-12-02T14:27:18.052Z,-1.40
2018-12-02T14:29:51.496Z,-1.40
2018-12-02T14:32:23.519Z,-1.40
2018-12-02T14:34:53.879Z,-1.40
2018-12-02T14:37:24.248Z,-1.40
2018-12-02T14:39:54.606Z,-1.40
2018-12-02T14:42:25.001Z,-1.40
2018-12-02T14:44:55.375Z,-1.50
2018-12-02T14:47:25.672Z,-1.50
2018-12-02T14:49:56.045Z,-1.50
2018-12-02T14:52:26.421Z,-1.50
2018-12-02T14:54:56.784Z,-1.50
2018-12-02T14:57:27.123Z,-1.50
2018-12-02T14:59:57.386Z,-1.50
2018-12-02T15:02:27.679Z,-1.50
2018-12-02T15:04:57.991Z,-1.50
2018-12-02T15:07:28.335Z,-1.50
2018-12-02T15:09:58.636Z,-1.50
2018-12-02T15:12:29.007Z,-1.50
2018-12-02T15:14:59.309Z,-1.50
2018-12-02T15:17:29.654Z,-1.50
2018-12-02T15:19:59.971Z,-1.50
2018-12-02T15:22:30.248Z,-1.50
2018-12-02T15:25:00.697Z,-1.50
2018-12-02T15:27:31.000Z,-1.50
2018-12-02T15:30:01.347Z,-1.50
2018-12-02T15:32:31.625Z,-1.60
2018-12-02T15:35:01.965Z,-1.60
2018-12-02T15:37:32.287Z,-1.60
2018-12-02T15:40:02.610Z,-1.50
2018-12-02T15:42:33.017Z,-1.60
2018-12-02T15:45:03.381Z,-1.50
2018-12-02T15:47:33.737Z,-1.50
2018-12-02T15:50:04.101Z,-1.50
2018-12-02T15:52:34.546Z,-1.60
2018-12-02T15:55:05.202Z,-1.60
2018-12-02T15:57:35.528Z,-1.60
2018-12-02T16:00:24.071Z,-1.50
2018-12-02T16:02:54.459Z,-1.50
2018-12-02T16:05:24.885Z,-1.60
2018-12-02T16:07:55.252Z,-1.50
2018-12-02T16:10:25.635Z,-1.50
2018-12-02T16:12:56.032Z,-1.60
2018-12-02T16:15:32.674Z,-1.60
2018-12-02T16:18:03.259Z,-1.60
2018-12-02T16:20:57.199Z,-1.60
2018-12-02T16:23:28.269Z,-1.60
2018-12-02T16:25:58.635Z,-1.60
2018-12-02T16:28:28.937Z,-1.70
2018-12-02T16:30:59.907Z,-1.70
2018-12-02T16:33:30.210Z,-1.80
2018-12-02T16:36:00.557Z,-1.70
2018-12-02T16:38:31.949Z,-1.70
2018-12-02T16:41:02.311Z,-1.60
2018-12-02T16:43:32.666Z,-1.60
2018-12-02T16:46:02.983Z,-1.70
2018-12-02T16:48:33.280Z,-1.70
2018-12-02T16:51:03.749Z,-1.70
2018-12-02T16:53:34.083Z,-1.70
2018-12-02T16:56:08.383Z,-1.70
2018-12-02T16:59:12.268Z,-1.70
2018-12-02T17:01:45.953Z,-1.60
2018-12-02T17:04:16.582Z,-1.70
2018-12-02T17:06:47.155Z,-1.70
2018-12-02T17:09:17.447Z,-1.70
2018-12-02T17:11:47.755Z,-1.70
2018-12-02T17:14:18.074Z,-1.70
2018-12-02T17:16:48.392Z,-1.80
2018-12-02T17:19:18.771Z,-1.70
2018-12-02T17:21:49.120Z,-1.70
2018-12-02T17:24:19.507Z,-1.70
2018-12-02T17:26:49.891Z,-1.70
2018-12-02T17:29:21.669Z,-1.60
2018-12-02T17:32:10.071Z,-1.60
2018-12-02T17:34:40.580Z,-1.60
2018-12-02T17:37:11.043Z,-1.60
2018-12-02T17:39:47.056Z,-1.60
2018-12-02T17:42:17.501Z,-1.50
2018-12-02T17:44:47.841Z,-1.50
2018-12-02T17:47:18.156Z,-1.50
2018-12-02T17:49:49.383Z,-1.50
2018-12-02T17:52:19.678Z,-1.50
2018-12-02T17:54:49.972Z,-1.50
2018-12-02T17:57:20.946Z,-1.40
2018-12-02T17:59:51.392Z,-1.40
2018-12-02T18:02:21.758Z,-1.40
2018-12-02T18:04:52.221Z,-1.40
2018-12-02T18:07:22.516Z,-1.40
2018-12-02T18:09:52.860Z,-1.40
2018-12-02T18:12:23.272Z,-1.40
2018-12-02T18:14:53.736Z,-1.40
2018-12-02T18:17:24.075Z,-1.40
2018-12-02T18:19:54.439Z,-1.40
2018-12-02T18:22:24.841Z,-1.30
2018-12-02T18:24:55.234Z,-1.30
2018-12-02T18:27:25.610Z,-1.30
2018-12-02T18:29:55.926Z,-1.30
2018-12-02T18:32:26.324Z,-1.30
2018-12-02T18:34:56.693Z,-1.20
2018-12-02T18:37:28.197Z,-1.20
2018-12-02T18:39:58.551Z,-1.20
2018-12-02T18:42:29.187Z,-1.20
2018-12-02T18:44:59.525Z,-1.30
2018-12-02T18:47:30.129Z,-1.30
2018-12-02T18:50:00.560Z,-1.30
2018-12-02T18:52:31.446Z,-1.30
2018-12-02T18:55:01.844Z,-1.30
2018-12-02T18:57:32.821Z,-1.30
2018-12-02T19:00:03.432Z,-1.30
2018-12-02T19:02:33.749Z,-1.30
2018-12-02T19:05:04.169Z,-1.30
2018-12-02T19:07:34.505Z,-1.40
2018-12-02T19:10:06.260Z,-1.30
2018-12-02T19:12:36.668Z,-1.30
2018-12-02T19:15:13.407Z,-1.30
2018-12-02T19:17:44.654Z,-1.30
2018-12-02T19:20:31.891Z,-1.30
2018-12-02T19:23:06.723Z,-1.30
2018-12-02T19:25:37.987Z,-1.20
2018-12-02T19:28:10.723Z,-1.20
2018-12-02T19:30:41.392Z,-1.20
2018-12-02T19:33:15.294Z,-1.20
2018-12-02T19:35:45.687Z,-1.30
2018-12-02T19:38:24.007Z,-1.30
2018-12-02T19:40:54.541Z,-1.30
2018-12-02T19:43:24.959Z,-1.30
2018-12-02T19:45:55.368Z,-1.30
2018-12-02T19:48:25.770Z,-1.20
2018-12-02T19:50:57.866Z,-1.20
2018-12-02T19:53:28.299Z,-1.20
2018-12-02T19:55:58.657Z,-1.20
2018-12-02T19:58:30.074Z,-1.20
2018-12-02T20:01:01.097Z,-1.10
2018-12-02T20:03:31.483Z,-1.20
2018-12-02T20:06:01.814Z,-1.10
2018-12-02T20:08:32.260Z,-1.20
2018-12-02T20:11:02.672Z,-1.20
2018-12-02T20:13:33.032Z,-1.20
2018-12-02T20:16:08.447Z,-1.20
2018-12-02T20:18:38.767Z,-1.20
2018-12-02T20:21:09.819Z,-1.20
2018-12-02T20:23:45.458Z,-1.10
2018-12-02T20:26:15.687Z,-1.20
2018-12-02T20:28:49.560Z,-1.20
2018-12-02T20:31:22.937Z,-1.10
2018-12-02T20:33:53.284Z,-1.10
2018-12-02T20:36:23.669Z,-1.10
2018-12-02T20:38:54.032Z,-1.10
2018-12-02T20:41:24.466Z,-1.10
2018-12-02T20:43:54.781Z,-1.10
2018-12-02T20:46:25.065Z,-1.10
2018-12-02T20:48:55.413Z,-1.10
2018-12-02T20:51:25.775Z,-1.00
2018-12-02T20:53:56.191Z,-1.10
2018-12-02T20:56:26.530Z,-1.00
2018-12-02T20:58:56.861Z,-1.00
2018-12-02T21:01:27.272Z,-1.00
2018-12-02T21:03:59.034Z,-1.00
2018-12-02T21:06:29.334Z,-1.00
2018-12-02T21:08:59.637Z,-1.00
2018-12-02T21:11:30.031Z,-1.00
2018-12-02T21:14:00.480Z,-1.00
2018-12-02T21:16:30.877Z,-0.90
2018-12-02T21:19:01.220Z,-1.00
2018-12-02T21:21:36.916Z,-0.90
2018-12-02T21:24:02.074Z,-0.90
2018-12-02T21:26:32.369Z,-0.90
2018-12-02T21:29:02.732Z,-0.90
2018-12-02T21:31:33.137Z,-0.90
2018-12-02T21:34:03.445Z,-1.00
2018-12-02T21:36:33.766Z,-1.00
2018-12-02T21:39:04.686Z,-1.00
2018-12-02T21:41:34.970Z,-1.00
2018-12-02T21:44:05.368Z,-1.00
2018-12-02T21:46:35.675Z,-1.00
2018-12-02T21:49:06.644Z,-1.10
2018-12-02T21:51:36.966Z,-1.10
2018-12-02T21:54:07.572Z,-1.00
2018-12-02T21:56:37.871Z,-1.10
2018-12-02T21:59:08.334Z,-1.00
2018-12-02T22:01:38.659Z,-1.00
2018-12-02T22:04:08.987Z,-1.00
2018-12-02T22:06:39.368Z,-1.00
2018-12-02T22:09:09.907Z,-0.90
2018-12-02T22:11:40.300Z,-1.00
2018-12-02T22:14:10.701Z,-1.00
2018-12-02T22:16:41.041Z,-1.00
2018-12-02T22:19:11.356Z,-1.00
2018-12-02T22:21:41.638Z,-1.00
2018-12-02T22:24:11.983Z,-1.00
2018-12-02T22:26:42.371Z,-1.00
2018-12-02T22:29:12.679Z,-1.00
2018-12-02T22:31:43.008Z,-1.00
2018-12-02T22:34:13.291Z,-1.00
2018-12-02T22:36:43.613Z,-1.00
2018-12-02T22:39:13.922Z,-1.00
2018-12-02T22:41:44.237Z,-1.00
2018-12-02T22:44:14.556Z,-1.00
2018-12-02T22:46:44.922Z,-1.00
2018-12-02T22:49:15.215Z,-1.00
2018-12-02T22:51:45.482Z,-1.00
2018-12-02T22:54:15.821Z,-1.00
2018-12-02T22:56:46.160Z,-1.00
2018-12-02T22:59:16.496Z,-1.00
2018-12-02T23:01:52.525Z,-1.00
2018-12-02T23:04:22.913Z,-1.00
2018-12-02T23:06:53.275Z,-1.00
2018-12-02T23:09:23.690Z,-1.00
2018-12-02T23:11:54.428Z,-1.00
2018-12-02T23:14:24.925Z,-1.00
2018-12-02T23:17:27.332Z,-1.00
2018-12-02T23:19:57.746Z,-1.00
2018-12-02T23:22:28.130Z,-1.00
2018-12-02T23:24:58.583Z,-1.00
2018-12-02T23:27:28.888Z,-1.00
2018-12-02T23:29:59.238Z,-1.00
2018-12-02T23:32:29.646Z,-1.00
2018-12-02T23:35:00.033Z,-1.00
2018-12-02T23:37:30.411Z,-1.00
2018-12-02T23:40:00.831Z,-1.00
2018-12-02T23:42:31.596Z,-1.00
2018-12-02T23:45:02.122Z,-1.00
2018-12-02T23:47:32.426Z,-1.00
2018-12-02T23:50:02.832Z,-1.00
2018-12-02T23:52:33.201Z,-1.00
2018-12-02T23:55:03.642Z,-1.00
2018-12-02T23:57:34.002Z,-1.00
